Adams Corners, New York
Current Conditions -  °F | °C
As of 7:45 PM on Monday 22 Dec 2014 (Local Time) from KSWF Reporting Station
Haze Haze  
Wind Chill: 36°   Ceiling: 1500
Heat Index: 36°   Visibility: 6mi
Dew Point: 36°   Wind: 0mph
Humidity: 100%   Direction: NA
Pressure: 30.24"   Gusts: NA
Location:  41.3969°N, 73.8382°W
Report Text: KSWF 230045Z 00000KT 6SM BR OVC015 02/02 A3024
Loading
Personal Weather Stations






























Interactive Weather Map New forecast layout! Learn more

10-Day Weather Forecast

Advertisements
Track Severe Weather on mobile